Detall de PIREP

Printer-friendly versionPDF version

[2014/09/06 20:32:00]
Flight IATA:CT3247
Pilot Number:042
Company ICAO:CAT
Aircraft Type:A320/E
PAX:123
Departing Airport: EETN
Destination Airport: LEPA
Alternate Airport:LEBL
Online: VATSIM
Route:LONSA Q11 ODVIN P31 MILTA L134 GARSO P733 TIGNU B73 RANOK P861 RASAN UP861 RUDAP UP31 DOSEL UM736 BZO UM984 PADKO UY38 VATIR UN852 VERSO UL129 LUNIK
Flight Level:F360
No Slew and time accel
No pause
Crash detect
Detect pilot in Cockpit between each 30 and 45 minutes
20:32 Zero fuel Weight: 124282 Lbs, Fuel Weight: 42200 Lbs
20:32 VATSIM:EETN 061920Z 00000KT 9999 SCT042 12/11 Q1019 TEMPO 2000 BR
20:32 VATSIM:LEPA 061900Z 20001KT 9999 FEW022 26/22 Q1012 NOSIG
20:41 Parking Brakes off
20:53 Take-off
20:53 Take off Weight: 164906 Lbs
20:53 Wind: 269º @ 008 Knots Heading: 269º
20:53 POS N59º 24´ 47´´ E024º 49´ 06´´
20:53 Gear Up: 141 Knots
20:53 Flaps:3 at 141 Knots
20:54 Flaps:2 at 188 Knots
20:54 Flaps:0 at 191 Knots
21:08 Wind:270º@025 Knots Heading: 218º Ground Speed: 442 Knots Altitude 29711 ft
21:15 TOC
21:15 Fuel Weight: 36529 Lb
21:23 Wind:270º@025 Knots Heading: 210º Ground Speed: 432 Knots Altitude 35987 ft
21:38 Wind:270º@025 Knots Heading: 208º Ground Speed: 432 Knots Altitude 35987 ft
21:53 Wind:270º@025 Knots Heading: 213º Ground Speed: 430 Knots Altitude 35987 ft
22:08 Wind:270º@025 Knots Heading: 212º Ground Speed: 430 Knots Altitude 35987 ft
22:23 Wind:270º@025 Knots Heading: 227º Ground Speed: 424 Knots Altitude 35987 ft
22:38 Wind:270º@025 Knots Heading: 202º Ground Speed: 433 Knots Altitude 36988 ft
22:53 Wind:270º@025 Knots Heading: 222º Ground Speed: 425 Knots Altitude 36988 ft
23:08 Wind:270º@025 Knots Heading: 244º Ground Speed: 418 Knots Altitude 36988 ft
23:23 Wind:270º@025 Knots Heading: 235º Ground Speed: 420 Knots Altitude 36988 ft
23:38 Wind:270º@025 Knots Heading: 231º Ground Speed: 421 Knots Altitude 36988 ft
23:53 Wind:270º@025 Knots Heading: 227º Ground Speed: 420 Knots Altitude 36988 ft
00:08 Wind:270º@025 Knots Heading: 192º Ground Speed: 434 Knots Altitude 36988 ft
00:12 TOD
00:12 Fuel Weight: 22852 Lb
00:23 Wind:270º@025 Knots Heading: 179º Ground Speed: 278 Knots Altitude 21049 ft
00:37 Flaps:1 at 196 Knots
00:38 Wind:269º@008 Knots Heading: 247º Ground Speed: 191 Knots Altitude 2998 ft
00:41 Flaps:3 at 169 Knots
00:41 Gear Down: 169 Knots
00:41 Flaps:4 at 163 Knots
00:41 Flaps:5 at 163 Knots
00:43 TouchDown:Rate -545 ft/min Speed: 155 Knots
00:43 VATSIM:LEPA 062330Z 00000KT 9999 FEW018 22/20 Q1013 NOSIG
00:43 Land
00:43 Wind:269º@008 Knots
00:43 Heading: 241º
00:43 Flight Duration: 03:50
00:43 Landing Weight: 145544 Lbs
00:43 POS N39º 33´ 03´´E002º 43´ 06´´
00:46 Parking brakes on
00:46 Block to Block Duration: 04:05
00:46 Final Fuel: 20921 Lbls
00:46 Spent Fuel: 21278 Lbls
00:46 Flight Length: 1531 NM
00:46 TOD Land Length: 133 NM

Exportar CSV

Powered by Drupal - Modified by Danger4k